createdAt,value
2017-12-23T00:00:46.762Z,969.13
2017-12-23T00:01:46.742Z,969.09
2017-12-23T00:02:46.732Z,969.12
2017-12-23T00:03:46.715Z,969.08
2017-12-23T00:04:46.689Z,969.06
2017-12-23T00:05:46.673Z,969.04
2017-12-23T00:06:46.658Z,969
2017-12-23T00:07:46.642Z,968.95
2017-12-23T00:08:46.631Z,968.99
2017-12-23T00:09:46.612Z,968.95
2017-12-23T00:10:46.606Z,968.93
2017-12-23T00:11:46.609Z,968.91
2017-12-23T00:12:46.566Z,968.89
2017-12-23T00:13:46.560Z,968.89
2017-12-23T00:14:46.545Z,968.81
2017-12-23T00:15:46.532Z,968.77
2017-12-23T00:16:46.480Z,968.75
2017-12-23T00:17:46.478Z,968.75
2017-12-23T00:18:46.460Z,968.74
2017-12-23T00:19:46.445Z,968.75
2017-12-23T00:20:46.418Z,968.72
2017-12-23T00:21:46.413Z,968.69
2017-12-23T00:22:46.399Z,968.73
2017-12-23T00:23:46.372Z,968.76
2017-12-23T00:24:46.357Z,968.75
2017-12-23T00:25:46.381Z,968.7
2017-12-23T00:26:46.325Z,968.7
2017-12-23T00:27:46.323Z,968.69
2017-12-23T00:28:46.297Z,968.64
2017-12-23T00:29:46.281Z,968.64
2017-12-23T00:30:46.266Z,968.66
2017-12-23T00:31:46.252Z,968.63
2017-12-23T00:32:46.247Z,968.6
2017-12-23T00:33:46.220Z,968.65
2017-12-23T00:34:46.219Z,968.71
2017-12-23T00:35:46.192Z,968.77
2017-12-23T00:36:46.176Z,968.79
2017-12-23T00:37:46.160Z,968.79
2017-12-23T00:38:46.145Z,968.78
2017-12-23T00:39:46.136Z,968.75
2017-12-23T00:40:46.116Z,968.77
2017-12-23T00:41:46.100Z,968.8
2017-12-23T00:42:46.086Z,968.77
2017-12-23T00:43:46.070Z,968.79
2017-12-23T00:44:46.056Z,968.73
2017-12-23T00:45:46.040Z,968.76
2017-12-23T00:46:46.025Z,968.73
2017-12-23T00:47:46.008Z,968.75
2017-12-23T00:48:45.996Z,968.78
2017-12-23T00:49:45.980Z,968.8
2017-12-23T00:50:45.965Z,968.78
2017-12-23T00:51:45.953Z,968.75
2017-12-23T00:52:45.934Z,968.79
2017-12-23T00:53:45.918Z,968.71
2017-12-23T00:54:45.903Z,968.68
2017-12-23T00:55:45.894Z,968.69
2017-12-23T00:56:45.873Z,968.7
2017-12-23T00:57:45.857Z,968.76
2017-12-23T00:58:45.843Z,968.73
2017-12-23T00:59:45.829Z,968.77
2017-12-23T01:00:45.834Z,968.8
2017-12-23T01:01:45.798Z,968.82
2017-12-23T01:02:45.783Z,968.8
2017-12-23T01:03:45.768Z,968.85
2017-12-23T01:04:45.753Z,968.79
2017-12-23T01:05:45.737Z,968.79
2017-12-23T01:06:45.722Z,968.88
2017-12-23T01:07:45.706Z,968.86
2017-12-23T01:08:45.714Z,968.83
2017-12-23T01:09:45.675Z,968.85
2017-12-23T01:10:45.662Z,968.83
2017-12-23T01:11:45.646Z,968.85
2017-12-23T01:12:45.631Z,968.81
2017-12-23T01:13:45.618Z,968.79
2017-12-23T01:14:45.600Z,968.74
2017-12-23T01:15:45.585Z,968.76
2017-12-23T01:16:45.572Z,968.74
2017-12-23T01:17:45.570Z,968.73
2017-12-23T01:18:45.543Z,968.73
2017-12-23T01:19:45.537Z,968.77
2017-12-23T01:20:45.551Z,968.76
2017-12-23T01:21:45.494Z,968.78
2017-12-23T01:22:45.481Z,968.78
2017-12-23T01:23:45.466Z,968.8
2017-12-23T01:24:45.453Z,968.82
2017-12-23T01:25:45.431Z,968.78
2017-12-23T01:26:45.418Z,968.75
2017-12-23T01:27:45.402Z,968.72
2017-12-23T01:28:45.387Z,968.66
2017-12-23T01:29:45.380Z,968.66
2017-12-23T01:30:45.365Z,968.62
2017-12-23T01:31:45.341Z,968.58
2017-12-23T01:32:45.327Z,968.61
2017-12-23T01:33:45.310Z,968.65
2017-12-23T01:34:45.294Z,968.56
2017-12-23T01:35:45.279Z,968.52
2017-12-23T01:36:45.263Z,968.57
2017-12-23T01:37:45.250Z,968.56
2017-12-23T01:38:45.238Z,968.6
2017-12-23T01:39:45.219Z,968.6
2017-12-23T01:40:45.220Z,968.58
2017-12-23T01:41:45.188Z,968.6
2017-12-23T01:42:45.172Z,968.62
2017-12-23T01:43:45.164Z,968.64
2017-12-23T01:44:45.141Z,968.6
2017-12-23T01:45:45.124Z,968.59
2017-12-23T01:46:45.109Z,968.51
2017-12-23T01:47:45.095Z,968.46
2017-12-23T01:48:45.079Z,968.4
2017-12-23T01:49:45.064Z,968.4
2017-12-23T01:50:45.048Z,968.31
2017-12-23T01:51:45.032Z,968.32
2017-12-23T01:52:45.029Z,968.31
2017-12-23T01:53:45.002Z,968.21
2017-12-23T01:54:45.000Z,968.13
2017-12-23T01:55:44.971Z,968.08
2017-12-23T01:56:44.954Z,968.14
2017-12-23T01:57:44.946Z,968.13
2017-12-23T01:58:44.924Z,968.14
2017-12-23T01:59:44.923Z,968.18
2017-12-23T02:00:44.895Z,968.18
2017-12-23T02:01:44.876Z,968.08
2017-12-23T02:02:44.859Z,968.03
2017-12-23T02:03:44.846Z,968.06
2017-12-23T02:04:44.829Z,968.1
2017-12-23T02:05:44.815Z,968.09
2017-12-23T02:06:44.798Z,968.08
2017-12-23T02:07:44.783Z,968.06
2017-12-23T02:08:44.766Z,968.02
2017-12-23T02:09:44.752Z,967.99
2017-12-23T02:10:44.735Z,967.95
2017-12-23T02:11:44.719Z,967.88
2017-12-23T02:12:44.705Z,967.91
2017-12-23T02:13:44.688Z,967.89
2017-12-23T02:14:44.672Z,967.89
2017-12-23T02:15:44.656Z,967.88
2017-12-23T02:16:44.641Z,967.89
2017-12-23T02:17:44.631Z,967.89
2017-12-23T02:18:44.609Z,967.84
2017-12-23T02:19:44.596Z,967.85
2017-12-23T02:20:44.578Z,967.82
2017-12-23T02:21:44.563Z,967.81
2017-12-23T02:22:44.546Z,967.82
2017-12-23T02:23:44.531Z,967.73
2017-12-23T02:24:44.516Z,967.64
2017-12-23T02:25:44.502Z,967.64
2017-12-23T02:26:44.482Z,967.59
2017-12-23T02:27:44.467Z,967.56
2017-12-23T02:28:44.453Z,967.55
2017-12-23T02:29:44.437Z,967.5
2017-12-23T02:30:44.420Z,967.46
2017-12-23T02:31:44.405Z,967.43
2017-12-23T02:32:44.391Z,967.42
2017-12-23T02:33:44.472Z,967.41
2017-12-23T02:34:44.366Z,967.43
2017-12-23T02:35:44.343Z,967.38
2017-12-23T02:36:44.327Z,967.4
2017-12-23T02:37:44.462Z,967.3
2017-12-23T02:38:44.300Z,967.38
2017-12-23T02:39:44.283Z,967.32
2017-12-23T02:40:44.263Z,967.36
2017-12-23T02:41:44.248Z,967.34
2017-12-23T02:42:44.233Z,967.32
2017-12-23T02:43:44.219Z,967.28
2017-12-23T02:44:44.201Z,967.3
2017-12-23T02:45:44.187Z,967.3
2017-12-23T02:46:44.187Z,967.3
2017-12-23T02:47:44.153Z,967.3
2017-12-23T02:48:44.138Z,967.37
2017-12-23T02:49:44.123Z,967.38
2017-12-23T02:50:44.107Z,967.4
2017-12-23T02:51:44.090Z,967.42
2017-12-23T02:52:44.074Z,967.43
2017-12-23T02:53:44.059Z,967.43
2017-12-23T02:54:44.045Z,967.46
2017-12-23T02:55:44.027Z,967.47
2017-12-23T02:56:44.012Z,967.41
2017-12-23T02:57:43.995Z,967.47
2017-12-23T02:58:43.981Z,967.55
2017-12-23T02:59:43.965Z,967.57
2017-12-23T03:00:43.949Z,967.57
2017-12-23T03:01:43.934Z,967.6
2017-12-23T03:02:43.917Z,967.56
2017-12-23T03:03:43.901Z,967.54
2017-12-23T03:04:43.885Z,967.54
2017-12-23T03:05:43.884Z,967.53
2017-12-23T03:06:43.854Z,967.43
2017-12-23T03:07:43.838Z,967.41
2017-12-23T03:08:43.823Z,967.47
2017-12-23T03:09:43.806Z,967.45
2017-12-23T03:10:43.799Z,967.47
2017-12-23T03:11:43.777Z,967.4
2017-12-23T03:12:43.759Z,967.41
2017-12-23T03:13:43.742Z,967.39
2017-12-23T03:14:43.727Z,967.36
2017-12-23T03:15:43.712Z,967.33
2017-12-23T03:16:43.696Z,967.31
2017-12-23T03:17:43.679Z,967.32
2017-12-23T03:18:43.662Z,967.32
2017-12-23T03:19:43.647Z,967.31
2017-12-23T03:20:43.631Z,967.28
2017-12-23T03:21:43.621Z,967.28
2017-12-23T03:22:43.598Z,967.27
2017-12-23T03:23:43.584Z,967.28
2017-12-23T03:24:43.566Z,967.31
2017-12-23T03:25:43.552Z,967.37
2017-12-23T03:26:43.535Z,967.4
2017-12-23T03:27:43.522Z,967.32
2017-12-23T03:28:43.503Z,967.29
2017-12-23T03:29:43.487Z,967.28
2017-12-23T03:30:43.473Z,967.29
2017-12-23T03:31:43.455Z,967.28
2017-12-23T03:32:43.438Z,967.21
2017-12-23T03:33:43.424Z,967.22
2017-12-23T03:34:43.414Z,967.19
2017-12-23T03:35:43.392Z,967.19
2017-12-23T03:36:43.375Z,967.16
2017-12-23T03:37:43.362Z,967.14
2017-12-23T03:38:43.345Z,967.11
2017-12-23T03:39:43.328Z,967.1
2017-12-23T03:40:43.312Z,967.07
2017-12-23T03:41:43.298Z,967.03
2017-12-23T03:42:43.301Z,967.06
2017-12-23T03:43:43.265Z,967.07
2017-12-23T03:44:43.249Z,967.04
2017-12-23T03:45:43.234Z,967.07
2017-12-23T03:46:43.217Z,967.02
2017-12-23T03:47:43.223Z,967.11
2017-12-23T03:48:43.184Z,967.05
2017-12-23T03:49:43.169Z,967.09
2017-12-23T03:50:43.154Z,967.08
2017-12-23T03:51:43.138Z,967.06
2017-12-23T03:52:43.123Z,967
2017-12-23T03:53:43.104Z,967.02
2017-12-23T03:54:43.087Z,967.01
2017-12-23T03:55:43.076Z,967.01
2017-12-23T03:56:43.056Z,967.03
2017-12-23T03:57:43.040Z,967.03
2017-12-23T03:58:43.025Z,966.98
2017-12-23T03:59:43.008Z,967.03
2017-12-23T04:00:42.993Z,967.05
2017-12-23T04:01:42.987Z,967.05
2017-12-23T04:02:42.960Z,967.02
2017-12-23T04:03:42.944Z,967.09
2017-12-23T04:04:42.928Z,967.1
2017-12-23T04:05:42.912Z,967.1
2017-12-23T04:06:42.896Z,967.09
2017-12-23T04:07:42.880Z,967.17
2017-12-23T04:08:42.864Z,967.1
2017-12-23T04:09:42.847Z,967.1
2017-12-23T04:10:42.832Z,967.08
2017-12-23T04:11:42.818Z,967.12
2017-12-23T04:12:42.800Z,967.13
2017-12-23T04:13:42.785Z,967.19
2017-12-23T04:14:42.769Z,967.24
2017-12-23T04:15:42.752Z,967.24
2017-12-23T04:16:42.737Z,967.26
2017-12-23T04:17:42.723Z,967.27
2017-12-23T04:18:42.708Z,967.24
2017-12-23T04:19:42.689Z,967.26
2017-12-23T04:20:42.673Z,967.32
2017-12-23T04:21:42.657Z,967.33
2017-12-23T04:22:42.639Z,967.38
2017-12-23T04:23:42.624Z,967.38
2017-12-23T04:24:42.609Z,967.42
2017-12-23T04:25:42.592Z,967.45
2017-12-23T04:26:42.577Z,967.53
2017-12-23T04:27:42.558Z,967.53
2017-12-23T04:28:42.544Z,967.61
2017-12-23T04:29:42.527Z,967.61
2017-12-23T04:30:42.512Z,967.62
2017-12-23T04:31:42.495Z,967.65
2017-12-23T04:32:42.479Z,967.63
2017-12-23T04:33:42.466Z,967.61
2017-12-23T04:34:42.447Z,967.6
2017-12-23T04:35:42.431Z,967.61
2017-12-23T04:36:42.414Z,967.59
2017-12-23T04:37:42.398Z,967.59
2017-12-23T04:38:42.382Z,967.5
2017-12-23T04:39:42.367Z,967.55
2017-12-23T04:40:42.353Z,967.5
2017-12-23T04:41:42.334Z,967.47
2017-12-23T04:42:42.320Z,967.42
2017-12-23T04:43:42.302Z,967.44
2017-12-23T04:44:42.286Z,967.38
2017-12-23T04:45:42.271Z,967.39
2017-12-23T04:46:42.255Z,967.4
2017-12-23T04:47:42.239Z,967.4
2017-12-23T04:48:42.235Z,967.41
2017-12-23T04:49:42.206Z,967.46
2017-12-23T04:50:42.191Z,967.45
2017-12-23T04:51:42.176Z,967.46
2017-12-23T04:52:42.159Z,967.45
2017-12-23T04:53:42.143Z,967.47
2017-12-23T04:54:42.126Z,967.47
2017-12-23T04:55:42.115Z,967.47
2017-12-23T04:56:42.094Z,967.5
2017-12-23T04:57:42.080Z,967.49
2017-12-23T04:58:42.064Z,967.5
2017-12-23T04:59:42.047Z,967.47
2017-12-23T05:00:42.031Z,967.45
2017-12-23T05:01:42.016Z,967.45
2017-12-23T05:02:42.011Z,967.44
2017-12-23T05:03:41.986Z,967.43
2017-12-23T05:04:41.967Z,967.43
2017-12-23T05:05:41.952Z,967.45
2017-12-23T05:06:41.939Z,967.49
2017-12-23T05:07:41.942Z,967.48
2017-12-23T05:08:41.906Z,967.47
2017-12-23T05:09:41.893Z,967.45
2017-12-23T05:10:41.875Z,967.41
2017-12-23T05:11:41.856Z,967.38
2017-12-23T05:12:41.841Z,967.4
2017-12-23T05:13:41.825Z,967.34
2017-12-23T05:14:41.808Z,967.32
2017-12-23T05:15:41.792Z,967.34
2017-12-23T05:16:41.776Z,967.39
2017-12-23T05:17:41.761Z,967.41
2017-12-23T05:18:41.744Z,967.43
2017-12-23T05:19:41.730Z,967.39
2017-12-23T05:20:41.714Z,967.43
2017-12-23T05:21:41.697Z,967.44
2017-12-23T05:22:41.679Z,967.4
2017-12-23T05:23:41.670Z,967.38
2017-12-23T05:24:41.671Z,967.37
2017-12-23T05:25:41.633Z,967.33
2017-12-23T05:26:41.618Z,967.32
2017-12-23T05:27:41.601Z,967.26
2017-12-23T05:28:41.584Z,967.3
2017-12-23T05:29:41.569Z,967.26
2017-12-23T05:30:41.554Z,967.23
2017-12-23T05:31:41.539Z,967.2
2017-12-23T05:32:41.522Z,967.18
2017-12-23T05:33:41.506Z,967.11
2017-12-23T05:34:41.491Z,967.04
2017-12-23T05:35:41.475Z,967.02
2017-12-23T05:36:41.459Z,967.06
2017-12-23T05:37:41.443Z,967
2017-12-23T05:38:41.429Z,966.99
2017-12-23T05:39:41.411Z,967.01
2017-12-23T05:40:41.395Z,966.99
2017-12-23T05:41:41.380Z,966.99
2017-12-23T05:42:41.364Z,966.95
2017-12-23T05:43:41.348Z,966.96
2017-12-23T05:44:41.346Z,967.04
2017-12-23T05:45:41.317Z,967.09
2017-12-23T05:46:41.320Z,967.1
2017-12-23T05:47:41.322Z,966.99
2017-12-23T05:48:41.268Z,967.09
2017-12-23T05:49:41.261Z,967.1
2017-12-23T05:50:41.237Z,967.13
2017-12-23T05:51:41.222Z,967.12
2017-12-23T05:52:41.208Z,967.14
2017-12-23T05:53:41.190Z,967.15
2017-12-23T05:54:41.174Z,967.13
2017-12-23T05:55:41.159Z,967.14
2017-12-23T05:56:41.142Z,967.1
2017-12-23T05:57:41.125Z,967.07
2017-12-23T05:58:41.110Z,966.97
2017-12-23T05:59:41.095Z,966.99
2017-12-23T06:00:41.081Z,966.98
2017-12-23T06:01:41.074Z,967
2017-12-23T06:02:41.051Z,966.96
2017-12-23T06:03:41.031Z,966.95
2017-12-23T06:04:41.022Z,966.94
2017-12-23T06:05:41.000Z,966.92
2017-12-23T06:06:40.984Z,966.88
2017-12-23T06:07:40.969Z,966.88
2017-12-23T06:08:40.952Z,966.92
2017-12-23T06:09:40.936Z,966.89
2017-12-23T06:10:40.920Z,966.92
2017-12-23T06:11:40.904Z,966.87
2017-12-23T06:12:40.906Z,966.89
2017-12-23T06:13:40.884Z,966.83
2017-12-23T06:14:40.891Z,966.86
2017-12-23T06:15:40.842Z,966.9
2017-12-23T06:16:40.826Z,966.87
2017-12-23T06:17:40.808Z,966.84
2017-12-23T06:18:40.793Z,966.84
2017-12-23T06:19:40.777Z,966.79
2017-12-23T06:20:40.762Z,966.81
2017-12-23T06:21:40.745Z,966.8
2017-12-23T06:22:40.730Z,966.78
2017-12-23T06:23:40.723Z,966.8
2017-12-23T06:24:40.697Z,966.81
2017-12-23T06:25:40.682Z,966.82
2017-12-23T06:26:40.666Z,966.76
2017-12-23T06:27:40.652Z,966.71
2017-12-23T06:28:40.635Z,966.72
2017-12-23T06:29:40.626Z,966.69
2017-12-23T06:30:40.602Z,966.7
2017-12-23T06:31:40.585Z,966.68
2017-12-23T06:32:40.571Z,966.65
2017-12-23T06:33:40.559Z,966.64
2017-12-23T06:34:40.540Z,966.61
2017-12-23T06:35:40.525Z,966.71
2017-12-23T06:36:40.508Z,966.71
2017-12-23T06:37:40.492Z,966.78
2017-12-23T06:38:40.477Z,966.83
2017-12-23T06:39:40.461Z,966.86
2017-12-23T06:40:40.444Z,966.79
2017-12-23T06:41:40.428Z,966.89
2017-12-23T06:42:40.414Z,966.88
2017-12-23T06:43:40.398Z,966.9
2017-12-23T06:44:40.380Z,966.9
2017-12-23T06:45:40.365Z,966.93
2017-12-23T06:46:40.348Z,966.88
2017-12-23T06:47:40.336Z,966.9
2017-12-23T06:48:40.317Z,966.9
2017-12-23T06:49:40.300Z,966.92
2017-12-23T06:50:40.285Z,966.93
2017-12-23T06:51:40.270Z,966.96
2017-12-23T06:52:40.254Z,967
2017-12-23T06:53:40.235Z,966.98
2017-12-23T06:54:40.223Z,967.02
2017-12-23T06:55:40.205Z,967.05
2017-12-23T06:56:40.188Z,967.06
2017-12-23T06:57:40.173Z,967.07
2017-12-23T06:58:40.161Z,967.07
2017-12-23T06:59:40.143Z,967.07
2017-12-23T07:00:40.126Z,967.1
2017-12-23T07:01:40.113Z,967.1
2017-12-23T07:02:40.111Z,967.07
2017-12-23T07:03:40.076Z,967.09
2017-12-23T07:04:40.061Z,967.14
2017-12-23T07:05:40.049Z,967.08
2017-12-23T07:06:40.030Z,967.11
2017-12-23T07:07:40.013Z,967.07
2017-12-23T07:08:40.002Z,967.04
2017-12-23T07:09:39.982Z,967.05
2017-12-23T07:10:39.966Z,967.1
2017-12-23T07:11:39.950Z,967.16
2017-12-23T07:12:39.938Z,967.04
2017-12-23T07:13:39.927Z,967.09
2017-12-23T07:14:39.902Z,967.05
2017-12-23T07:15:39.888Z,967.06
2017-12-23T07:16:39.872Z,967.05
2017-12-23T07:17:39.857Z,967.05
2017-12-23T07:18:39.838Z,967.04
2017-12-23T07:19:39.822Z,967.11
2017-12-23T07:20:39.807Z,967.08
2017-12-23T07:21:39.792Z,967.11
2017-12-23T07:22:39.777Z,967.19
2017-12-23T07:23:39.760Z,967.18
2017-12-23T07:24:39.744Z,967.18
2017-12-23T07:25:39.728Z,967.19
2017-12-23T07:26:39.715Z,967.21
2017-12-23T07:27:39.696Z,967.18
2017-12-23T07:28:39.681Z,967.17
2017-12-23T07:29:39.665Z,967.11
2017-12-23T07:30:39.649Z,967.08
2017-12-23T07:31:39.632Z,967.03
2017-12-23T07:32:39.634Z,967.04
2017-12-23T07:33:39.614Z,967.06
2017-12-23T07:34:39.584Z,967.02
2017-12-23T07:35:39.571Z,966.95
2017-12-23T07:36:39.553Z,966.99
2017-12-23T07:37:39.538Z,966.95
2017-12-23T07:38:39.523Z,966.98
2017-12-23T07:39:39.507Z,966.93
2017-12-23T07:40:39.497Z,966.96
2017-12-23T07:41:39.480Z,966.95
2017-12-23T07:42:39.460Z,966.96
2017-12-23T07:43:39.444Z,966.92
2017-12-23T07:44:39.428Z,966.94
2017-12-23T07:45:39.413Z,966.92
2017-12-23T07:46:39.416Z,966.91
2017-12-23T07:47:39.380Z,966.92
2017-12-23T07:48:39.365Z,966.97
2017-12-23T07:49:39.348Z,966.96
2017-12-23T07:50:39.334Z,966.9
2017-12-23T07:51:39.317Z,966.89
2017-12-23T07:52:39.303Z,966.86
2017-12-23T07:53:39.286Z,966.87
2017-12-23T07:54:39.270Z,966.81
2017-12-23T07:55:39.259Z,966.83
2017-12-23T07:56:39.242Z,966.85
2017-12-23T07:57:39.252Z,966.85
2017-12-23T07:58:39.207Z,966.89
2017-12-23T07:59:39.196Z,966.83
2017-12-23T08:00:39.176Z,966.82
2017-12-23T08:01:39.162Z,966.82
2017-12-23T08:02:39.145Z,966.81
2017-12-23T08:03:39.129Z,966.77
2017-12-23T08:04:39.113Z,966.79
2017-12-23T08:05:39.121Z,966.83
2017-12-23T08:06:39.083Z,966.79
2017-12-23T08:07:39.066Z,966.76
2017-12-23T08:08:39.055Z,966.77
2017-12-23T08:09:39.035Z,966.73
2017-12-23T08:10:39.020Z,966.74
2017-12-23T08:11:39.005Z,966.72
2017-12-23T08:12:38.991Z,966.67
2017-12-23T08:13:38.994Z,966.62
2017-12-23T08:14:38.958Z,966.58
2017-12-23T08:15:38.942Z,966.55
2017-12-23T08:16:38.927Z,966.55
2017-12-23T08:17:38.911Z,966.54
2017-12-23T08:18:38.898Z,966.54
2017-12-23T08:19:38.897Z,966.6
2017-12-23T08:20:38.864Z,966.64
2017-12-23T08:21:38.919Z,966.58
2017-12-23T08:22:38.836Z,966.54
2017-12-23T08:23:38.819Z,966.55
2017-12-23T08:24:38.804Z,966.58
2017-12-23T08:25:38.788Z,966.52
2017-12-23T08:26:38.773Z,966.55
2017-12-23T08:27:38.757Z,966.51
2017-12-23T08:28:38.742Z,966.5
2017-12-23T08:29:38.731Z,966.49
2017-12-23T08:30:38.714Z,966.44
2017-12-23T08:31:38.707Z,966.45
2017-12-23T08:32:38.683Z,966.42
2017-12-23T08:33:38.666Z,966.4
2017-12-23T08:34:38.702Z,966.31
2017-12-23T08:35:38.639Z,966.3
2017-12-23T08:36:38.620Z,966.33
2017-12-23T08:37:38.606Z,966.33
2017-12-23T08:38:38.606Z,966.31
2017-12-23T08:39:38.582Z,966.25
2017-12-23T08:40:38.590Z,966.24
2017-12-23T08:41:38.544Z,966.21
2017-12-23T08:42:38.548Z,966.21
2017-12-23T08:43:38.514Z,966.18
2017-12-23T08:44:38.499Z,966.21
2017-12-23T08:45:38.486Z,966.22
2017-12-23T08:46:38.468Z,966.24
2017-12-23T08:47:38.453Z,966.23
2017-12-23T08:48:38.438Z,966.23
2017-12-23T08:49:38.423Z,966.21
2017-12-23T08:50:38.408Z,966.23
2017-12-23T08:51:38.393Z,966.17
2017-12-23T08:52:38.379Z,966.24
2017-12-23T08:53:38.362Z,966.21
2017-12-23T08:54:38.355Z,966.24
2017-12-23T08:55:38.332Z,966.21
2017-12-23T08:56:38.319Z,966.23
2017-12-23T08:57:38.302Z,966.23
2017-12-23T08:58:38.288Z,966.24
2017-12-23T08:59:38.276Z,966.27
2017-12-23T09:00:38.270Z,966.29
2017-12-23T09:01:38.242Z,966.26
2017-12-23T09:02:38.228Z,966.24
2017-12-23T09:03:38.214Z,966.28
2017-12-23T09:04:38.199Z,966.33
2017-12-23T09:05:38.198Z,966.34
2017-12-23T09:06:38.171Z,966.31
2017-12-23T09:07:38.167Z,966.31
2017-12-23T09:08:38.139Z,966.28
2017-12-23T09:09:38.124Z,966.28
2017-12-23T09:10:38.109Z,966.28
2017-12-23T09:11:38.112Z,966.22
2017-12-23T09:12:38.095Z,966.27
2017-12-23T09:13:38.070Z,966.19
2017-12-23T09:14:38.050Z,966.17
2017-12-23T09:15:38.034Z,966.14
2017-12-23T09:16:38.020Z,966.15
2017-12-23T09:17:38.006Z,966.13
2017-12-23T09:18:37.988Z,966.14
2017-12-23T09:19:37.974Z,966.11
2017-12-23T09:20:37.960Z,966.04
2017-12-23T09:21:37.945Z,966.05
2017-12-23T09:22:37.934Z,966.04
2017-12-23T09:23:37.917Z,965.97
2017-12-23T09:24:37.901Z,966.02
2017-12-23T09:25:37.888Z,966.01
2017-12-23T09:26:37.870Z,966
2017-12-23T09:27:37.879Z,966.05
2017-12-23T09:28:37.840Z,966.01
2017-12-23T09:29:37.834Z,966.02
2017-12-23T09:30:37.812Z,966.05
2017-12-23T09:31:37.799Z,965.97
2017-12-23T09:32:37.783Z,965.94
2017-12-23T09:33:37.768Z,965.99
2017-12-23T09:34:37.757Z,965.98
2017-12-23T09:35:37.739Z,965.99
2017-12-23T09:36:37.724Z,965.97
2017-12-23T09:37:37.709Z,966.01
2017-12-23T09:38:37.694Z,966.01
2017-12-23T09:39:37.680Z,966.01
2017-12-23T09:40:37.664Z,966.06
2017-12-23T09:41:37.667Z,966.1
2017-12-23T09:42:37.636Z,966.13
2017-12-23T09:43:37.622Z,966.11
2017-12-23T09:44:37.606Z,966.12
2017-12-23T09:45:37.593Z,966.16
2017-12-23T09:46:37.577Z,966.16
2017-12-23T09:47:37.563Z,966.16
2017-12-23T09:48:37.548Z,966.1
2017-12-23T09:49:37.534Z,966.2
2017-12-23T09:50:37.520Z,966.18
2017-12-23T09:51:37.503Z,966.16
2017-12-23T09:52:37.493Z,966.18
2017-12-23T09:53:37.493Z,966.11
2017-12-23T09:54:37.461Z,966.09
2017-12-23T09:55:37.446Z,966.05
2017-12-23T09:56:37.432Z,966.08
2017-12-23T09:57:37.419Z,966.1
2017-12-23T09:58:37.403Z,966.07
2017-12-23T09:59:37.389Z,966.09
2017-12-23T10:00:37.374Z,966.13
2017-12-23T10:01:37.358Z,966.08
2017-12-23T10:02:37.345Z,966.14
2017-12-23T10:03:37.352Z,966.04
2017-12-23T10:04:37.326Z,965.99
2017-12-23T10:05:37.304Z,965.97
2017-12-23T10:06:37.287Z,965.91
2017-12-23T10:07:37.273Z,965.91
2017-12-23T10:08:37.259Z,965.88
2017-12-23T10:09:37.245Z,965.96
2017-12-23T10:10:37.230Z,965.95
2017-12-23T10:11:37.214Z,965.9
2017-12-23T10:12:37.203Z,965.83
2017-12-23T10:13:37.187Z,965.8
2017-12-23T10:14:37.183Z,965.77
2017-12-23T10:15:37.158Z,965.77
2017-12-23T10:16:37.300Z,965.77
2017-12-23T10:17:37.129Z,965.73
2017-12-23T10:18:37.115Z,965.7
2017-12-23T10:19:37.100Z,965.65
2017-12-23T10:20:37.085Z,965.62
2017-12-23T10:21:37.072Z,965.61
2017-12-23T10:22:37.057Z,965.57
2017-12-23T10:23:37.072Z,965.57
2017-12-23T10:24:37.030Z,965.57
2017-12-23T10:25:37.019Z,965.52
2017-12-23T10:26:37.000Z,965.44
2017-12-23T10:27:36.984Z,965.42
2017-12-23T10:28:36.970Z,965.37
2017-12-23T10:29:36.956Z,965.38
2017-12-23T10:30:36.946Z,965.32
2017-12-23T10:31:36.930Z,965.37
2017-12-23T10:32:36.915Z,965.36
2017-12-23T10:33:36.898Z,965.39
2017-12-23T10:34:36.888Z,965.37
2017-12-23T10:35:36.869Z,965.4
2017-12-23T10:36:36.864Z,965.42
2017-12-23T10:37:36.843Z,965.45
2017-12-23T10:38:36.829Z,965.43
2017-12-23T10:39:36.814Z,965.49
2017-12-23T10:40:36.799Z,965.42
2017-12-23T10:41:36.787Z,965.41
2017-12-23T10:42:36.771Z,965.41
2017-12-23T10:43:36.758Z,965.43
2017-12-23T10:44:36.744Z,965.4
2017-12-23T10:45:36.729Z,965.43
2017-12-23T10:46:36.714Z,965.4
2017-12-23T10:47:36.717Z,965.4
2017-12-23T10:48:36.689Z,965.33
2017-12-23T10:49:36.674Z,965.39
2017-12-23T10:50:36.694Z,965.4
2017-12-23T10:51:36.644Z,965.41
2017-12-23T10:52:36.630Z,965.41
2017-12-23T10:53:36.615Z,965.38
2017-12-23T10:54:36.607Z,965.32
2017-12-23T10:55:36.588Z,965.34
2017-12-23T10:56:36.576Z,965.29
2017-12-23T10:57:36.583Z,965.3
2017-12-23T10:58:36.552Z,965.21
2017-12-23T10:59:36.535Z,965.21
2017-12-23T11:00:36.520Z,965.15
2017-12-23T11:01:36.507Z,965.08
2017-12-23T11:02:36.491Z,965
2017-12-23T11:03:36.479Z,964.77
2017-12-23T11:04:36.465Z,964.83
2017-12-23T11:05:36.451Z,964.97
2017-12-23T11:06:36.442Z,965.01
2017-12-23T11:07:36.424Z,964.93
2017-12-23T11:08:36.411Z,964.92
2017-12-23T11:09:36.396Z,964.93
2017-12-23T11:10:36.383Z,964.96
2017-12-23T11:11:36.369Z,964.95
2017-12-23T11:12:36.355Z,965.02
2017-12-23T11:13:36.342Z,964.9
2017-12-23T11:14:36.328Z,964.97
2017-12-23T11:15:36.313Z,964.94
2017-12-23T11:16:36.304Z,964.89
2017-12-23T11:17:36.293Z,964.97
2017-12-23T11:18:36.272Z,964.97
2017-12-23T11:19:36.259Z,965.02
2017-12-23T11:20:36.245Z,965.07
2017-12-23T11:21:36.253Z,965.13
2017-12-23T11:22:36.220Z,965.1
2017-12-23T11:23:36.206Z,965.11
2017-12-23T11:24:36.191Z,965.17
2017-12-23T11:25:36.176Z,965.22
2017-12-23T11:26:36.162Z,965.15
2017-12-23T11:27:36.150Z,965.16
2017-12-23T11:28:36.138Z,965.15
2017-12-23T11:29:36.124Z,965.18
2017-12-23T11:30:36.113Z,965.2
2017-12-23T11:31:36.097Z,965.17
2017-12-23T11:32:36.084Z,965.22
2017-12-23T11:33:36.070Z,965.16
2017-12-23T11:34:36.056Z,965.18
2017-12-23T11:35:36.043Z,965.05
2017-12-23T11:36:36.031Z,965.13
2017-12-23T11:37:36.016Z,965.06
2017-12-23T11:38:36.002Z,965.01
2017-12-23T11:39:35.990Z,965.09
2017-12-23T11:40:35.976Z,965.01
2017-12-23T11:41:35.984Z,965.09
2017-12-23T11:42:35.953Z,965.05
2017-12-23T11:43:35.937Z,965.06
2017-12-23T11:44:35.925Z,965.07
2017-12-23T11:45:35.910Z,965.06
2017-12-23T11:46:35.899Z,965.02
2017-12-23T11:47:35.900Z,965.02
2017-12-23T11:48:35.875Z,965.03
2017-12-23T11:49:35.873Z,964.99
2017-12-23T11:50:35.866Z,964.91
2017-12-23T11:51:35.833Z,964.94
2017-12-23T11:52:35.818Z,964.87
2017-12-23T11:53:35.806Z,964.89
2017-12-23T11:54:35.793Z,964.9
2017-12-23T11:55:35.781Z,964.96
2017-12-23T11:56:35.786Z,964.9
2017-12-23T11:57:35.757Z,964.87
2017-12-23T11:58:35.742Z,964.88
2017-12-23T11:59:35.726Z,964.87
2017-12-23T12:00:35.716Z,964.87
2017-12-23T12:01:35.700Z,964.83
2017-12-23T12:02:35.690Z,964.84
2017-12-23T12:03:35.675Z,964.77
2017-12-23T12:04:35.689Z,964.76
2017-12-23T12:05:35.652Z,964.77
2017-12-23T12:06:35.638Z,964.77
2017-12-23T12:07:35.625Z,964.84
2017-12-23T12:08:35.612Z,964.8
2017-12-23T12:09:35.597Z,964.78
2017-12-23T12:10:35.584Z,964.81
2017-12-23T12:11:35.571Z,964.76
2017-12-23T12:12:35.562Z,964.81
2017-12-23T12:13:35.546Z,964.79
2017-12-23T12:14:35.531Z,964.7
2017-12-23T12:15:35.528Z,964.82
2017-12-23T12:16:35.509Z,964.84
2017-12-23T12:17:35.493Z,964.76
2017-12-23T12:18:35.480Z,964.71
2017-12-23T12:19:35.466Z,964.67
2017-12-23T12:20:35.457Z,964.74
2017-12-23T12:21:35.441Z,964.77
2017-12-23T12:22:35.428Z,964.64
2017-12-23T12:23:35.416Z,964.66
2017-12-23T12:24:35.404Z,964.64
2017-12-23T12:25:35.388Z,964.62
2017-12-23T12:26:35.375Z,964.61
2017-12-23T12:27:35.361Z,964.55
2017-12-23T12:28:35.349Z,964.54
2017-12-23T12:29:35.336Z,964.57
2017-12-23T12:30:35.322Z,964.54
2017-12-23T12:31:35.310Z,964.48